sensor_id;sensor_type;location;lat;lon;timestamp;pressure;altitude;pressure_sealevel;temperature;humidity
50434;BME280;36361;38.954;-9.002;2024-02-21T00:00:56;101845.78;;;15.42;100.00
50434;BME280;36361;38.954;-9.002;2024-02-21T00:01:57;101848.06;;;15.45;100.00
50434;BME280;36361;38.954;-9.002;2024-02-21T00:02:58;101835.56;;;15.62;100.00
50434;BME280;36361;38.954;-9.002;2024-02-21T00:03:59;101844.59;;;15.70;100.00
50434;BME280;36361;38.954;-9.002;2024-02-21T00:05:00;101844.59;;;15.70;100.00
50434;BME280;36361;38.954;-9.002;2024-02-21T00:06:01;101854.97;;;15.68;100.00
50434;BME280;36361;38.954;-9.002;2024-02-21T00:07:02;101850.09;;;15.70;100.00
50434;BME280;36361;38.954;-9.002;2024-02-21T00:08:03;101846.94;;;15.59;100.00
50434;BME280;36361;38.954;-9.002;2024-02-21T00:09:04;101849.97;;;15.45;100.00
50434;BME280;36361;38.954;-9.002;2024-02-21T00:10:05;101852.13;;;15.36;100.00
50434;BME280;36361;38.954;-9.002;2024-02-21T00:11:06;101851.13;;;15.30;100.00
50434;BME280;36361;38.954;-9.002;2024-02-21T00:12:08;101845.69;;;15.17;100.00
50434;BME280;36361;38.954;-9.002;2024-02-21T00:13:09;101846.59;;;15.04;100.00
50434;BME280;36361;38.954;-9.002;2024-02-21T00:14:09;101845.75;;;15.04;100.00
50434;BME280;36361;38.954;-9.002;2024-02-21T00:15:10;101843.84;;;15.04;100.00
50434;BME280;36361;38.954;-9.002;2024-02-21T00:16:11;101849.09;;;15.13;100.00
50434;BME280;36361;38.954;-9.002;2024-02-21T00:17:12;101853.72;;;15.12;100.00
50434;BME280;36361;38.954;-9.002;2024-02-21T00:18:12;101848.66;;;15.16;100.00
50434;BME280;36361;38.954;-9.002;2024-02-21T00:19:13;101847.34;;;15.25;100.00
50434;BME280;36361;38.954;-9.002;2024-02-21T00:20:15;101851.09;;;15.37;100.00
50434;BME280;36361;38.954;-9.002;2024-02-21T00:21:16;101842.75;;;15.12;100.00
50434;BME280;36361;38.954;-9.002;2024-02-21T00:22:18;101847.41;;;15.18;100.00
50434;BME280;36361;38.954;-9.002;2024-02-21T00:23:19;101841.81;;;14.80;100.00
50434;BME280;36361;38.954;-9.002;2024-02-21T00:24:20;101847.94;;;14.82;100.00
50434;BME280;36361;38.954;-9.002;2024-02-21T00:25:21;101839.66;;;14.89;100.00
50434;BME280;36361;38.954;-9.002;2024-02-21T00:26:22;101848.72;;;14.89;100.00
50434;BME280;36361;38.954;-9.002;2024-02-21T00:27:23;101841.78;;;14.93;100.00
50434;BME280;36361;38.954;-9.002;2024-02-21T00:28:24;101845.81;;;14.91;100.00
50434;BME280;36361;38.954;-9.002;2024-02-21T00:29:25;101843.31;;;14.76;100.00
50434;BME280;36361;38.954;-9.002;2024-02-21T00:30:26;101842.44;;;14.82;100.00
50434;BME280;36361;38.954;-9.002;2024-02-21T00:31:27;101830.22;;;14.85;100.00
50434;BME280;36361;38.954;-9.002;2024-02-21T00:32:27;101845.19;;;14.82;100.00
50434;BME280;36361;38.954;-9.002;2024-02-21T00:33:28;101845.59;;;14.92;100.00
50434;BME280;36361;38.954;-9.002;2024-02-21T00:34:29;101845.44;;;14.74;100.00
50434;BME280;36361;38.954;-9.002;2024-02-21T00:35:30;101845.44;;;14.74;100.00
50434;BME280;36361;38.954;-9.002;2024-02-21T00:36:30;101842.25;;;14.77;100.00
50434;BME280;36361;38.954;-9.002;2024-02-21T00:37:31;101833.81;;;14.72;100.00
50434;BME280;36361;38.954;-9.002;2024-02-21T00:38:32;101848.28;;;14.99;100.00
50434;BME280;36361;38.954;-9.002;2024-02-21T00:39:33;101842.78;;;15.05;100.00
50434;BME280;36361;38.954;-9.002;2024-02-21T00:40:35;101853.31;;;15.08;100.00
50434;BME280;36361;38.954;-9.002;2024-02-21T00:41:35;101845.59;;;14.92;100.00
50434;BME280;36361;38.954;-9.002;2024-02-21T00:42:36;101840.25;;;15.04;100.00
50434;BME280;36361;38.954;-9.002;2024-02-21T00:43:37;101832.28;;;14.89;100.00
50434;BME280;36361;38.954;-9.002;2024-02-21T00:44:38;101835.25;;;14.94;100.00
50434;BME280;36361;38.954;-9.002;2024-02-21T00:45:39;101836.94;;;14.89;100.00
50434;BME280;36361;38.954;-9.002;2024-02-21T00:46:40;101841.16;;;14.91;100.00
50434;BME280;36361;38.954;-9.002;2024-02-21T00:47:41;101831.06;;;14.85;100.00
50434;BME280;36361;38.954;-9.002;2024-02-21T00:48:41;101827.25;;;14.86;100.00
50434;BME280;36361;38.954;-9.002;2024-02-21T00:49:42;101825.56;;;14.85;100.00
50434;BME280;36361;38.954;-9.002;2024-02-21T00:50:43;101816.69;;;14.90;100.00
50434;BME280;36361;38.954;-9.002;2024-02-21T00:51:44;101821.78;;;14.86;100.00
50434;BME280;36361;38.954;-9.002;2024-02-21T00:52:45;101815.22;;;14.94;100.00
50434;BME280;36361;38.954;-9.002;2024-02-21T00:53:46;101817.50;;;14.97;100.00
50434;BME280;36361;38.954;-9.002;2024-02-21T00:54:46;101813.75;;;14.91;100.00
50434;BME280;36361;38.954;-9.002;2024-02-21T00:55:49;101821.94;;;14.98;100.00
50434;BME280;36361;38.954;-9.002;2024-02-21T00:56:50;101822.97;;;15.03;100.00
50434;BME280;36361;38.954;-9.002;2024-02-21T00:57:51;101811.88;;;14.85;100.00
50434;BME280;36361;38.954;-9.002;2024-02-21T00:58:52;101823.06;;;14.77;100.00
50434;BME280;36361;38.954;-9.002;2024-02-21T00:59:52;101819.69;;;14.75;100.00
50434;BME280;36361;38.954;-9.002;2024-02-21T01:00:53;101812.56;;;14.61;100.00
50434;BME280;36361;38.954;-9.002;2024-02-21T01:01:54;101815.97;;;14.56;100.00
50434;BME280;36361;38.954;-9.002;2024-02-21T01:02:55;101811.31;;;14.57;100.00
50434;BME280;36361;38.954;-9.002;2024-02-21T01:03:56;101821.63;;;14.41;100.00
50434;BME280;36361;38.954;-9.002;2024-02-21T01:04:57;101811.94;;;14.39;100.00
50434;BME280;36361;38.954;-9.002;2024-02-21T01:05:58;101813.00;;;14.24;100.00
50434;BME280;36361;38.954;-9.002;2024-02-21T01:06:59;101811.31;;;14.30;100.00
50434;BME280;36361;38.954;-9.002;2024-02-21T01:08:00;101807.53;;;14.31;100.00
50434;BME280;36361;38.954;-9.002;2024-02-21T01:09:01;101804.16;;;14.56;100.00
50434;BME280;36361;38.954;-9.002;2024-02-21T01:10:01;101803.28;;;14.62;100.00
50434;BME280;36361;38.954;-9.002;2024-02-21T01:11:02;101803.72;;;14.52;100.00
50434;BME280;36361;38.954;-9.002;2024-02-21T01:12:03;101797.19;;;14.40;100.00
50434;BME280;36361;38.954;-9.002;2024-02-21T01:13:04;101794.88;;;14.50;100.00
50434;BME280;36361;38.954;-9.002;2024-02-21T01:14:06;101792.81;;;14.45;100.00
50434;BME280;36361;38.954;-9.002;2024-02-21T01:15:07;101785.00;;;14.29;100.00
50434;BME280;36361;38.954;-9.002;2024-02-21T01:16:08;101782.25;;;14.29;100.00
50434;BME280;36361;38.954;-9.002;2024-02-21T01:17:09;101785.66;;;14.18;100.00
50434;BME280;36361;38.954;-9.002;2024-02-21T01:18:09;101774.25;;;14.08;100.00
50434;BME280;36361;38.954;-9.002;2024-02-21T01:19:10;101776.38;;;14.19;100.00
50434;BME280;36361;38.954;-9.002;2024-02-21T01:20:11;101776.78;;;14.36;100.00
50434;BME280;36361;38.954;-9.002;2024-02-21T01:21:12;101783.31;;;14.55;100.00
50434;BME280;36361;38.954;-9.002;2024-02-21T01:22:13;101784.78;;;14.37;100.00
50434;BME280;36361;38.954;-9.002;2024-02-21T01:23:15;101775.91;;;14.35;100.00
50434;BME280;36361;38.954;-9.002;2024-02-21T01:24:16;101780.59;;;14.15;100.00
50434;BME280;36361;38.954;-9.002;2024-02-21T01:25:17;101778.91;;;14.20;100.00
50434;BME280;36361;38.954;-9.002;2024-02-21T01:26:17;101783.72;;;14.38;100.00
50434;BME280;36361;38.954;-9.002;2024-02-21T01:27:18;101782.03;;;14.37;100.00
50434;BME280;36361;38.954;-9.002;2024-02-21T01:28:19;101782.03;;;14.37;100.00
50434;BME280;36361;38.954;-9.002;2024-02-21T01:29:20;101774.44;;;14.33;100.00
50434;BME280;36361;38.954;-9.002;2024-02-21T01:30:21;101781.81;;;14.39;100.00
50434;BME280;36361;38.954;-9.002;2024-02-21T01:31:21;101783.28;;;14.41;100.00
50434;BME280;36361;38.954;-9.002;2024-02-21T01:32:22;101773.81;;;14.37;100.00
50434;BME280;36361;38.954;-9.002;2024-02-21T01:33:25;101780.13;;;14.51;100.00
50434;BME280;36361;38.954;-9.002;2024-02-21T01:34:25;101781.81;;;14.39;100.00
50434;BME280;36361;38.954;-9.002;2024-02-21T01:35:27;101778.47;;;14.23;100.00
50434;BME280;36361;38.954;-9.002;2024-02-21T01:36:27;101781.22;;;14.17;100.00
50434;BME280;36361;38.954;-9.002;2024-02-21T01:37:28;101783.31;;;14.28;100.00
50434;BME280;36361;38.954;-9.002;2024-02-21T01:38:29;101777.19;;;14.39;100.00
50434;BME280;36361;38.954;-9.002;2024-02-21T01:39:30;101779.31;;;14.31;100.00
50434;BME280;36361;38.954;-9.002;2024-02-21T01:40:31;101776.38;;;14.06;100.00
50434;BME280;36361;38.954;-9.002;2024-02-21T01:41:34;101779.16;;;13.99;100.00
50434;BME280;36361;38.954;-9.002;2024-02-21T01:42:38;101777.88;;;14.02;100.00
50434;BME280;36361;38.954;-9.002;2024-02-21T01:43:40;101775.09;;;14.15;100.00
50434;BME280;36361;38.954;-9.002;2024-02-21T01:44:41;101765.44;;;13.92;100.00
50434;BME280;36361;38.954;-9.002;2024-02-21T01:45:42;101762.94;;;13.64;100.00
50434;BME280;36361;38.954;-9.002;2024-02-21T01:46:43;101771.34;;;13.63;100.00
50434;BME280;36361;38.954;-9.002;2024-02-21T01:47:44;101771.34;;;13.76;100.00
50434;BME280;36361;38.954;-9.002;2024-02-21T01:48:45;101772.19;;;13.77;100.00
50434;BME280;36361;38.954;-9.002;2024-02-21T01:49:46;101774.28;;;13.68;100.00
50434;BME280;36361;38.954;-9.002;2024-02-21T01:50:49;101776.81;;;13.89;100.00
50434;BME280;36361;38.954;-9.002;2024-02-21T01:51:50;101778.91;;;14.07;100.00
50434;BME280;36361;38.954;-9.002;2024-02-21T01:52:51;101763.34;;;13.88;100.00
50434;BME280;36361;38.954;-9.002;2024-02-21T01:53:53;101770.91;;;13.79;100.00
50434;BME280;36361;38.954;-9.002;2024-02-21T01:54:56;101778.28;;;13.79;100.00
50434;BME280;36361;38.954;-9.002;2024-02-21T01:55:58;101765.22;;;13.61;100.00
50434;BME280;36361;38.954;-9.002;2024-02-21T01:56:59;101767.13;;;13.87;100.00
50434;BME280;36361;38.954;-9.002;2024-02-21T01:58:00;101765.03;;;13.82;100.00
50434;BME280;36361;38.954;-9.002;2024-02-21T01:59:01;101771.34;;;13.76;100.00
50434;BME280;36361;38.954;-9.002;2024-02-21T02:00:03;101769.44;;;13.70;100.00
50434;BME280;36361;38.954;-9.002;2024-02-21T02:01:11;101775.53;;;13.59;100.00
50434;BME280;36361;38.954;-9.002;2024-02-21T02:02:12;101761.19;;;13.37;100.00
50434;BME280;36361;38.954;-9.002;2024-02-21T02:03:13;101774.88;;;13.44;100.00
50434;BME280;36361;38.954;-9.002;2024-02-21T02:04:20;101775.06;;;13.42;100.00
50434;BME280;36361;38.954;-9.002;2024-02-21T02:05:21;101768.56;;;13.36;100.00
50434;BME280;36361;38.954;-9.002;2024-02-21T02:06:22;101775.94;;;13.36;100.00
50434;BME280;36361;38.954;-9.002;2024-02-21T02:07:23;101775.25;;;13.34;100.00
50434;BME280;36361;38.954;-9.002;2024-02-21T02:08:24;101773.00;;;13.51;100.00
50434;BME280;36361;38.954;-9.002;2024-02-21T02:09:25;101773.84;;;13.45;100.00
50434;BME280;36361;38.954;-9.002;2024-02-21T02:10:25;101779.09;;;13.53;100.00
50434;BME280;36361;38.954;-9.002;2024-02-21T02:11:27;101772.16;;;13.57;100.00
50434;BME280;36361;38.954;-9.002;2024-02-21T02:12:29;101768.38;;;13.71;100.00
50434;BME280;36361;38.954;-9.002;2024-02-21T02:13:30;101765.84;;;13.89;100.00
50434;BME280;36361;38.954;-9.002;2024-02-21T02:14:30;101775.75;;;13.77;100.00
50434;BME280;36361;38.954;-9.002;2024-02-21T02:15:44;101776.38;;;13.79;100.00
50434;BME280;36361;38.954;-9.002;2024-02-21T02:16:48;101778.47;;;13.71;100.00
50434;BME280;36361;38.954;-9.002;2024-02-21T02:17:49;101778.91;;;13.54;100.00
50434;BME280;36361;38.954;-9.002;2024-02-21T02:18:49;101778.47;;;13.51;100.00
50434;BME280;36361;38.954;-9.002;2024-02-21T02:19:50;101781.81;;;13.53;100.00
50434;BME280;36361;38.954;-9.002;2024-02-21T02:20:51;101781.84;;;13.66;100.00
50434;BME280;36361;38.954;-9.002;2024-02-21T02:22:00;101778.50;;;13.77;100.00
50434;BME280;36361;38.954;-9.002;2024-02-21T02:23:08;101787.13;;;13.87;100.00
50434;BME280;36361;38.954;-9.002;2024-02-21T02:24:10;101788.81;;;13.88;100.00
50434;BME280;36361;38.954;-9.002;2024-02-21T02:25:11;101790.72;;;13.94;100.00
50434;BME280;36361;38.954;-9.002;2024-02-21T02:26:12;101793.66;;;13.93;100.00
50434;BME280;36361;38.954;-9.002;2024-02-21T02:27:13;101794.50;;;13.87;100.00
50434;BME280;36361;38.954;-9.002;2024-02-21T02:28:14;101795.72;;;13.71;100.00
50434;BME280;36361;38.954;-9.002;2024-02-21T02:29:15;101801.44;;;13.63;100.00
50434;BME280;36361;38.954;-9.002;2024-02-21T02:30:17;101791.91;;;13.52;100.00
50434;BME280;36361;38.954;-9.002;2024-02-21T02:31:18;101795.28;;;13.48;100.00
50434;BME280;36361;38.954;-9.002;2024-02-21T02:32:19;101799.09;;;13.53;100.00
50434;BME280;36361;38.954;-9.002;2024-02-21T02:33:20;101796.97;;;13.62;100.00
50434;BME280;36361;38.954;-9.002;2024-02-21T02:34:21;101798.47;;;13.58;100.00
50434;BME280;36361;38.954;-9.002;2024-02-21T02:35:21;101800.56;;;13.56;100.00
50434;BME280;36361;38.954;-9.002;2024-02-21T02:36:22;101793.41;;;13.48;100.00
50434;BME280;36361;38.954;-9.002;2024-02-21T02:37:23;101792.97;;;13.51;100.00
50434;BME280;36361;38.954;-9.002;2024-02-21T02:38:24;101795.72;;;13.45;100.00
50434;BME280;36361;38.954;-9.002;2024-02-21T02:39:25;101792.75;;;13.53;100.00
50434;BME280;36361;38.954;-9.002;2024-02-21T02:40:25;101801.19;;;13.58;100.00
50434;BME280;36361;38.954;-9.002;2024-02-21T02:41:26;101794.47;;;13.54;100.00
50434;BME280;36361;38.954;-9.002;2024-02-21T02:42:27;101799.09;;;13.53;100.00
50434;BME280;36361;38.954;-9.002;2024-02-21T02:43:28;101788.94;;;13.27;100.00
50434;BME280;36361;38.954;-9.002;2024-02-21T02:44:29;101795.06;;;13.43;100.00
50434;BME280;36361;38.954;-9.002;2024-02-21T02:45:29;101785.84;;;13.57;100.00
50434;BME280;36361;38.954;-9.002;2024-02-21T02:46:30;101794.69;;;13.59;100.00
50434;BME280;36361;38.954;-9.002;2024-02-21T02:47:31;101789.78;;;13.34;100.00
50434;BME280;36361;38.954;-9.002;2024-02-21T02:48:32;101784.31;;;13.28;100.00
50434;BME280;36361;38.954;-9.002;2024-02-21T02:49:33;101786.84;;;13.43;100.00
50434;BME280;36361;38.954;-9.002;2024-02-21T02:50:33;101783.06;;;13.44;100.00
50434;BME280;36361;38.954;-9.002;2024-02-21T02:51:34;101775.06;;;13.42;100.00
50434;BME280;36361;38.954;-9.002;2024-02-21T02:52:35;101768.75;;;13.42;100.00
50434;BME280;36361;38.954;-9.002;2024-02-21T02:53:36;101769.66;;;13.55;100.00
50434;BME280;36361;38.954;-9.002;2024-02-21T02:54:37;101772.75;;;13.32;100.00
50434;BME280;36361;38.954;-9.002;2024-02-21T02:55:38;101764.78;;;13.37;100.00
50434;BME280;36361;38.954;-9.002;2024-02-21T02:56:39;101774.00;;;13.30;100.00
50434;BME280;36361;38.954;-9.002;2024-02-21T02:57:39;101769.63;;;13.35;100.00
50434;BME280;36361;38.954;-9.002;2024-02-21T02:58:43;101766.88;;;13.35;100.00
50434;BME280;36361;38.954;-9.002;2024-02-21T02:59:48;101773.59;;;13.40;100.00
50434;BME280;36361;38.954;-9.002;2024-02-21T03:00:49;101767.06;;;13.34;100.00
50434;BME280;36361;38.954;-9.002;2024-02-21T03:01:50;101780.75;;;13.41;100.00
50434;BME280;36361;38.954;-9.002;2024-02-21T03:02:50;101770.69;;;13.48;100.00
50434;BME280;36361;38.954;-9.002;2024-02-21T03:03:51;101772.38;;;13.49;100.00
50434;BME280;36361;38.954;-9.002;2024-02-21T03:04:52;101767.09;;;13.41;100.00
50434;BME280;36361;38.954;-9.002;2024-02-21T03:05:53;101774.63;;;13.32;100.00
50434;BME280;36361;38.954;-9.002;2024-02-21T03:06:54;101778.44;;;13.31;100.00
50434;BME280;36361;38.954;-9.002;2024-02-21T03:07:55;101761.81;;;13.26;100.00
50434;BME280;36361;38.954;-9.002;2024-02-21T03:08:56;101770.00;;;13.19;100.00
50434;BME280;36361;38.954;-9.002;2024-02-21T03:09:57;101767.63;;;13.16;100.00
50434;BME280;36361;38.954;-9.002;2024-02-21T03:10:58;101772.06;;;13.17;100.00
50434;BME280;36361;38.954;-9.002;2024-02-21T03:11:59;101770.88;;;13.40;100.00
50434;BME280;36361;38.954;-9.002;2024-02-21T03:13:03;101774.84;;;13.30;100.00
50434;BME280;36361;38.954;-9.002;2024-02-21T03:14:04;101761.41;;;13.35;100.00
50434;BME280;36361;38.954;-9.002;2024-02-21T03:15:06;101765.00;;;13.36;100.00
50434;BME280;36361;38.954;-9.002;2024-02-21T03:16:06;101763.91;;;13.30;100.00
50434;BME280;36361;38.954;-9.002;2024-02-21T03:17:07;101761.38;;;13.22;100.00
50434;BME280;36361;38.954;-9.002;2024-02-21T03:18:08;101757.69;;;12.95;100.00
50434;BME280;36361;38.954;-9.002;2024-02-21T03:19:09;101747.13;;;12.86;100.00
50434;BME280;36361;38.954;-9.002;2024-02-21T03:20:10;101754.53;;;12.92;100.00
50434;BME280;36361;38.954;-9.002;2024-02-21T03:21:12;101745.50;;;12.91;100.00
50434;BME280;36361;38.954;-9.002;2024-02-21T03:22:13;101747.38;;;12.97;100.00
50434;BME280;36361;38.954;-9.002;2024-02-21T03:23:13;101751.63;;;13.00;100.00
50434;BME280;36361;38.954;-9.002;2024-02-21T03:24:14;101744.66;;;12.91;100.00
50434;BME280;36361;38.954;-9.002;2024-02-21T03:25:15;101750.56;;;13.01;100.00
50434;BME280;36361;38.954;-9.002;2024-02-21T03:26:16;101748.81;;;12.87;100.00
50434;BME280;36361;38.954;-9.002;2024-02-21T03:27:17;101749.19;;;12.77;100.00
50434;BME280;36361;38.954;-9.002;2024-02-21T03:28:18;101749.19;;;12.77;100.00
50434;BME280;36361;38.954;-9.002;2024-02-21T03:29:19;101745.00;;;12.74;100.00
50434;BME280;36361;38.954;-9.002;2024-02-21T03:30:20;101732.00;;;12.83;100.00
50434;BME280;36361;38.954;-9.002;2024-02-21T03:31:21;101732.03;;;12.96;100.00
50434;BME280;36361;38.954;-9.002;2024-02-21T03:32:22;101734.63;;;13.11;100.00
50434;BME280;36361;38.954;-9.002;2024-02-21T03:33:23;101736.50;;;13.10;100.00
50434;BME280;36361;38.954;-9.002;2024-02-21T03:34:24;101730.19;;;13.10;100.00
50434;BME280;36361;38.954;-9.002;2024-02-21T03:35:24;101730.38;;;13.02;100.00
50434;BME280;36361;38.954;-9.002;2024-02-21T03:36:27;101727.47;;;13.10;100.00
50434;BME280;36361;38.954;-9.002;2024-02-21T03:37:28;101728.06;;;12.99;100.00
50434;BME280;36361;38.954;-9.002;2024-02-21T03:38:29;101734.16;;;13.01;100.00
50434;BME280;36361;38.954;-9.002;2024-02-21T03:39:32;101728.69;;;13.01;100.00
50434;BME280;36361;38.954;-9.002;2024-02-21T03:40:33;101731.41;;;12.94;100.00
50434;BME280;36361;38.954;-9.002;2024-02-21T03:41:35;101732.69;;;13.05;100.00
50434;BME280;36361;38.954;-9.002;2024-02-21T03:42:36;101729.97;;;13.05;100.00
50434;BME280;36361;38.954;-9.002;2024-02-21T03:43:39;101733.44;;;13.27;100.00
50434;BME280;36361;38.954;-9.002;2024-02-21T03:44:40;101727.94;;;13.33;100.00
50434;BME280;36361;38.954;-9.002;2024-02-21T03:45:41;101727.56;;;13.36;100.00
50434;BME280;36361;38.954;-9.002;2024-02-21T03:46:42;101733.84;;;13.30;100.00
50434;BME280;36361;38.954;-9.002;2024-02-21T03:47:42;101735.94;;;13.28;100.00
50434;BME280;36361;38.954;-9.002;2024-02-21T03:48:43;101732.59;;;13.26;100.00
50434;BME280;36361;38.954;-9.002;2024-02-21T03:49:44;101729.56;;;13.15;100.00
50434;BME280;36361;38.954;-9.002;2024-02-21T03:50:45;101725.38;;;13.12;100.00
50434;BME280;36361;38.954;-9.002;2024-02-21T03:51:46;101729.16;;;13.11;100.00
50434;BME280;36361;38.954;-9.002;2024-02-21T03:52:47;101717.63;;;13.22;100.00
50434;BME280;36361;38.954;-9.002;2024-02-21T03:53:48;101714.06;;;13.28;100.00
50434;BME280;36361;38.954;-9.002;2024-02-21T03:54:49;101720.78;;;13.19;100.00
50434;BME280;36361;38.954;-9.002;2024-02-21T03:55:49;101714.84;;;13.16;100.00
50434;BME280;36361;38.954;-9.002;2024-02-21T03:56:50;101721.16;;;13.16;100.00
50434;BME280;36361;38.954;-9.002;2024-02-21T03:57:51;101710.63;;;13.00;100.00
50434;BME280;36361;38.954;-9.002;2024-02-21T03:58:52;101713.13;;;12.95;100.00
50434;BME280;36361;38.954;-9.002;2024-02-21T03:59:53;101717.50;;;12.89;100.00
50434;BME280;36361;38.954;-9.002;2024-02-21T04:00:54;101724.47;;;12.92;100.00
50434;BME280;36361;38.954;-9.002;2024-02-21T04:01:55;101721.09;;;12.96;100.00
50434;BME280;36361;38.954;-9.002;2024-02-21T04:02:56;101714.81;;;12.96;100.00
50434;BME280;36361;38.954;-9.002;2024-02-21T04:03:56;101717.34;;;13.04;100.00
50434;BME280;36361;38.954;-9.002;2024-02-21T04:04:57;101707.66;;;12.95;100.00
50434;BME280;36361;38.954;-9.002;2024-02-21T04:05:58;101711.88;;;13.04;100.00
50434;BME280;36361;38.954;-9.002;2024-02-21T04:06:59;101716.28;;;13.05;100.00
50434;BME280;36361;38.954;-9.002;2024-02-21T04:08:00;101714.81;;;12.96;100.00
50434;BME280;36361;38.954;-9.002;2024-02-21T04:09:03;101716.06;;;12.93;100.00
50434;BME280;36361;38.954;-9.002;2024-02-21T04:10:05;101716.44;;;12.84;100.00
50434;BME280;36361;38.954;-9.002;2024-02-21T04:11:06;101720.91;;;12.98;100.00
50434;BME280;36361;38.954;-9.002;2024-02-21T04:12:08;101717.97;;;13.06;100.00
50434;BME280;36361;38.954;-9.002;2024-02-21T04:13:09;101719.88;;;12.99;100.00
50434;BME280;36361;38.954;-9.002;2024-02-21T04:14:10;101719.00;;;12.92;100.00
50434;BME280;36361;38.954;-9.002;2024-02-21T04:15:11;101728.72;;;13.14;100.00
50434;BME280;36361;38.954;-9.002;2024-02-21T04:16:12;101733.78;;;13.10;100.00
50434;BME280;36361;38.954;-9.002;2024-02-21T04:17:13;101728.72;;;13.14;100.00
50434;BME280;36361;38.954;-9.002;2024-02-21T04:18:14;101729.16;;;13.11;100.00
50434;BME280;36361;38.954;-9.002;2024-02-21T04:19:15;101734.91;;;13.29;100.00
50434;BME280;36361;38.954;-9.002;2024-02-21T04:20:16;101731.53;;;13.41;100.00
50434;BME280;36361;38.954;-9.002;2024-02-21T04:21:17;101726.69;;;13.43;100.00
50434;BME280;36361;38.954;-9.002;2024-02-21T04:22:18;101729.66;;;13.41;100.00
50434;BME280;36361;38.954;-9.002;2024-02-21T04:23:19;101739.31;;;13.30;100.00
50434;BME280;36361;38.954;-9.002;2024-02-21T04:24:19;101731.06;;;13.17;100.00
50434;BME280;36361;38.954;-9.002;2024-02-21T04:25:21;101738.75;;;12.94;100.00
50434;BME280;36361;38.954;-9.002;2024-02-21T04:26:21;101735.22;;;13.00;100.00
50434;BME280;36361;38.954;-9.002;2024-02-21T04:27:22;101743.28;;;13.21;100.00
50434;BME280;36361;38.954;-9.002;2024-02-21T04:28:23;101734.88;;;13.23;100.00
50434;BME280;36361;38.954;-9.002;2024-02-21T04:29:24;101743.09;;;13.29;100.00
50434;BME280;36361;38.954;-9.002;2024-02-21T04:30:24;101738.41;;;13.10;100.00
50434;BME280;36361;38.954;-9.002;2024-02-21T04:31:25;101741.34;;;13.15;100.00
50434;BME280;36361;38.954;-9.002;2024-02-21T04:32:26;101746.78;;;13.02;100.00
50434;BME280;36361;38.954;-9.002;2024-02-21T04:33:27;101732.66;;;12.92;100.00
50434;BME280;36361;38.954;-9.002;2024-02-21T04:34:28;101744.25;;;13.00;100.00
50434;BME280;36361;38.954;-9.002;2024-02-21T04:35:29;101746.28;;;12.85;100.00
50434;BME280;36361;38.954;-9.002;2024-02-21T04:36:30;101756.00;;;12.94;100.00
50434;BME280;36361;38.954;-9.002;2024-02-21T04:37:31;101748.44;;;12.90;100.00
50434;BME280;36361;38.954;-9.002;2024-02-21T04:38:31;101755.56;;;12.91;100.00
50434;BME280;36361;38.954;-9.002;2024-02-21T04:39:32;101752.88;;;13.04;100.00
50434;BME280;36361;38.954;-9.002;2024-02-21T04:40:33;101754.16;;;13.08;100.00
50434;BME280;36361;38.954;-9.002;2024-02-21T04:41:34;101753.91;;;12.90;100.00
50434;BME280;36361;38.954;-9.002;2024-02-21T04:42:35;101748.69;;;12.60;100.00
50434;BME280;36361;38.954;-9.002;2024-02-21T04:43:36;101745.22;;;12.79;100.00
50434;BME280;36361;38.954;-9.002;2024-02-21T04:44:37;101732.78;;;12.70;100.00
50434;BME280;36361;38.954;-9.002;2024-02-21T04:45:38;101744.19;;;12.87;100.00
50434;BME280;36361;38.954;-9.002;2024-02-21T04:46:42;101747.19;;;12.99;100.00
50434;BME280;36361;38.954;-9.002;2024-02-21T04:47:43;101746.75;;;12.95;100.00
50434;BME280;36361;38.954;-9.002;2024-02-21T04:48:45;101743.69;;;12.64;100.00
50434;BME280;36361;38.954;-9.002;2024-02-21T04:49:46;101738.72;;;12.80;100.00
50434;BME280;36361;38.954;-9.002;2024-02-21T04:50:47;101739.59;;;12.94;100.00
50434;BME280;36361;38.954;-9.002;2024-02-21T04:51:48;101744.06;;;13.08;100.00
50434;BME280;36361;38.954;-9.002;2024-02-21T04:52:48;101735.34;;;12.78;100.00
50434;BME280;36361;38.954;-9.002;2024-02-21T04:53:49;101740.38;;;12.75;100.00
50434;BME280;36361;38.954;-9.002;2024-02-21T04:54:50;101736.38;;;12.77;100.00
50434;BME280;36361;38.954;-9.002;2024-02-21T04:55:52;101735.34;;;12.78;100.00
50434;BME280;36361;38.954;-9.002;2024-02-21T04:56:53;101740.22;;;12.96;100.00
50434;BME280;36361;38.954;-9.002;2024-02-21T04:57:53;101740.06;;;13.04;100.00
50434;BME280;36361;38.954;-9.002;2024-02-21T04:58:54;101735.41;;;12.92;100.00
50434;BME280;36361;38.954;-9.002;2024-02-21T04:59:55;101730.75;;;12.86;100.00
50434;BME280;36361;38.954;-9.002;2024-02-21T05:00:56;101724.19;;;12.80;100.00
50434;BME280;36361;38.954;-9.002;2024-02-21T05:01:57;101730.31;;;12.89;100.00
50434;BME280;36361;38.954;-9.002;2024-02-21T05:02:59;101726.13;;;12.86;100.00
50434;BME280;36361;38.954;-9.002;2024-02-21T05:04:00;101729.88;;;12.78;100.00
50434;BME280;36361;38.954;-9.002;2024-02-21T05:05:00;101732.81;;;12.77;100.00
50434;BME280;36361;38.954;-9.002;2024-02-21T05:06:01;101732.97;;;12.62;100.00
50434;BME280;36361;38.954;-9.002;2024-02-21T05:07:02;101723.03;;;12.48;100.00
50434;BME280;36361;38.954;-9.002;2024-02-21T05:08:03;101731.09;;;12.63;100.00
50434;BME280;36361;38.954;-9.002;2024-02-21T05:09:04;101733.16;;;12.54;100.00
50434;BME280;36361;38.954;-9.002;2024-02-21T05:10:07;101733.56;;;12.58;100.00
50434;BME280;36361;38.954;-9.002;2024-02-21T05:11:08;101738.19;;;12.57;100.00
50434;BME280;36361;38.954;-9.002;2024-02-21T05:12:08;101726.88;;;12.67;100.00